sensor_id;sensor_type;location;lat;lon;timestamp;P1;durP1;ratioP1;P2;durP2;ratioP2
177;SDS011;77;48.792;9.032;2023-01-01T00:00:19;73.20;;;43.30;;
177;SDS011;77;48.792;9.032;2023-01-01T00:02:44;63.57;;;38.70;;
177;SDS011;77;48.792;9.032;2023-01-01T00:05:11;64.37;;;38.17;;
177;SDS011;77;48.792;9.032;2023-01-01T00:07:36;57.77;;;35.93;;
177;SDS011;77;48.792;9.032;2023-01-01T00:10:01;66.33;;;39.83;;
177;SDS011;77;48.792;9.032;2023-01-01T00:12:27;61.80;;;40.70;;
177;SDS011;77;48.792;9.032;2023-01-01T00:14:52;61.07;;;38.33;;
177;SDS011;77;48.792;9.032;2023-01-01T00:17:17;62.13;;;38.83;;
177;SDS011;77;48.792;9.032;2023-01-01T00:19:42;67.00;;;39.07;;
177;SDS011;77;48.792;9.032;2023-01-01T00:22:09;64.83;;;38.60;;
177;SDS011;77;48.792;9.032;2023-01-01T00:24:34;60.37;;;38.20;;
177;SDS011;77;48.792;9.032;2023-01-01T00:26:59;52.80;;;32.43;;
177;SDS011;77;48.792;9.032;2023-01-01T00:29:24;46.83;;;30.90;;
177;SDS011;77;48.792;9.032;2023-01-01T00:31:49;40.53;;;26.20;;
177;SDS011;77;48.792;9.032;2023-01-01T00:34:15;44.60;;;26.90;;
177;SDS011;77;48.792;9.032;2023-01-01T00:36:40;38.97;;;25.30;;
177;SDS011;77;48.792;9.032;2023-01-01T00:39:06;38.10;;;25.40;;
177;SDS011;77;48.792;9.032;2023-01-01T00:41:32;39.23;;;25.00;;
177;SDS011;77;48.792;9.032;2023-01-01T00:43:57;30.80;;;20.50;;
177;SDS011;77;48.792;9.032;2023-01-01T00:46:22;35.17;;;22.13;;
177;SDS011;77;48.792;9.032;2023-01-01T00:48:47;28.37;;;18.47;;
177;SDS011;77;48.792;9.032;2023-01-01T00:51:13;31.80;;;17.83;;
177;SDS011;77;48.792;9.032;2023-01-01T00:53:38;27.87;;;18.20;;
177;SDS011;77;48.792;9.032;2023-01-01T00:56:05;26.00;;;16.87;;
177;SDS011;77;48.792;9.032;2023-01-01T00:58:31;30.20;;;16.63;;
177;SDS011;77;48.792;9.032;2023-01-01T01:00:56;26.17;;;16.23;;
177;SDS011;77;48.792;9.032;2023-01-01T01:03:21;26.00;;;15.93;;
177;SDS011;77;48.792;9.032;2023-01-01T01:05:47;22.37;;;14.83;;
177;SDS011;77;48.792;9.032;2023-01-01T01:08:12;23.37;;;14.37;;
177;SDS011;77;48.792;9.032;2023-01-01T01:10:37;25.67;;;15.87;;
177;SDS011;77;48.792;9.032;2023-01-01T01:13:03;22.33;;;14.73;;
177;SDS011;77;48.792;9.032;2023-01-01T01:15:29;21.87;;;13.73;;
177;SDS011;77;48.792;9.032;2023-01-01T01:17:54;20.03;;;13.30;;
177;SDS011;77;48.792;9.032;2023-01-01T01:20:19;22.17;;;14.20;;
177;SDS011;77;48.792;9.032;2023-01-01T01:22:44;21.03;;;14.53;;
177;SDS011;77;48.792;9.032;2023-01-01T01:25:09;21.97;;;14.10;;
177;SDS011;77;48.792;9.032;2023-01-01T01:27:35;24.90;;;14.97;;
177;SDS011;77;48.792;9.032;2023-01-01T01:30:01;22.93;;;14.80;;
177;SDS011;77;48.792;9.032;2023-01-01T01:32:27;21.40;;;14.10;;
177;SDS011;77;48.792;9.032;2023-01-01T01:34:52;20.80;;;13.67;;
177;SDS011;77;48.792;9.032;2023-01-01T15:49:00;9.83;;;4.40;;
177;SDS011;77;48.792;9.032;2023-01-01T15:51:25;11.40;;;4.10;;
177;SDS011;77;48.792;9.032;2023-01-01T15:53:52;10.33;;;4.10;;
177;SDS011;77;48.792;9.032;2023-01-01T15:56:18;8.43;;;4.17;;
177;SDS011;77;48.792;9.032;2023-01-01T15:58:46;11.70;;;4.53;;
177;SDS011;77;48.792;9.032;2023-01-01T16:01:12;9.07;;;4.00;;
177;SDS011;77;48.792;9.032;2023-01-01T16:03:39;12.10;;;4.23;;
177;SDS011;77;48.792;9.032;2023-01-01T16:06:06;8.97;;;4.30;;
177;SDS011;77;48.792;9.032;2023-01-01T16:08:31;9.60;;;4.60;;
177;SDS011;77;48.792;9.032;2023-01-01T16:10:56;7.17;;;4.50;;
177;SDS011;77;48.792;9.032;2023-01-01T16:13:22;9.50;;;4.47;;
177;SDS011;77;48.792;9.032;2023-01-01T16:15:47;12.67;;;4.40;;
177;SDS011;77;48.792;9.032;2023-01-01T16:18:12;7.80;;;4.40;;
177;SDS011;77;48.792;9.032;2023-01-01T16:20:40;9.00;;;4.50;;
177;SDS011;77;48.792;9.032;2023-01-01T16:23:07;10.80;;;4.63;;
177;SDS011;77;48.792;9.032;2023-01-01T16:25:32;14.27;;;4.67;;
177;SDS011;77;48.792;9.032;2023-01-01T16:27:57;10.97;;;4.40;;
177;SDS011;77;48.792;9.032;2023-01-01T16:30:23;9.50;;;4.30;;
177;SDS011;77;48.792;9.032;2023-01-01T16:32:49;10.63;;;4.20;;
177;SDS011;77;48.792;9.032;2023-01-01T16:35:14;10.50;;;4.72;;
177;SDS011;77;48.792;9.032;2023-01-01T16:37:39;7.40;;;4.30;;
177;SDS011;77;48.792;9.032;2023-01-01T16:40:07;8.37;;;4.47;;
177;SDS011;77;48.792;9.032;2023-01-01T16:42:32;8.40;;;4.20;;
177;SDS011;77;48.792;9.032;2023-01-01T16:44:57;7.23;;;4.40;;
177;SDS011;77;48.792;9.032;2023-01-01T16:47:22;9.23;;;4.60;;
177;SDS011;77;48.792;9.032;2023-01-01T16:49:47;7.70;;;4.37;;
177;SDS011;77;48.792;9.032;2023-01-01T16:52:13;8.10;;;4.10;;
177;SDS011;77;48.792;9.032;2023-01-01T16:54:38;8.57;;;4.30;;
177;SDS011;77;48.792;9.032;2023-01-01T16:57:04;18.03;;;4.83;;
177;SDS011;77;48.792;9.032;2023-01-01T16:59:29;9.10;;;4.50;;
177;SDS011;77;48.792;9.032;2023-01-01T17:01:55;9.07;;;4.70;;
177;SDS011;77;48.792;9.032;2023-01-01T17:04:20;10.70;;;4.97;;
177;SDS011;77;48.792;9.032;2023-01-01T17:06:45;8.67;;;4.57;;
177;SDS011;77;48.792;9.032;2023-01-01T17:09:10;11.40;;;4.50;;
177;SDS011;77;48.792;9.032;2023-01-01T17:11:35;11.30;;;4.83;;
177;SDS011;77;48.792;9.032;2023-01-01T17:14:02;9.93;;;4.70;;
177;SDS011;77;48.792;9.032;2023-01-01T17:16:27;8.27;;;4.50;;
177;SDS011;77;48.792;9.032;2023-01-01T17:18:52;11.47;;;4.97;;
177;SDS011;77;48.792;9.032;2023-01-01T17:21:18;10.10;;;5.10;;
177;SDS011;77;48.792;9.032;2023-01-01T17:23:43;13.97;;;5.10;;
177;SDS011;77;48.792;9.032;2023-01-01T17:26:08;11.50;;;4.93;;
177;SDS011;77;48.792;9.032;2023-01-01T17:28:34;10.33;;;4.83;;
177;SDS011;77;48.792;9.032;2023-01-01T17:31:02;11.57;;;5.47;;
177;SDS011;77;48.792;9.032;2023-01-01T17:33:27;9.80;;;5.30;;
177;SDS011;77;48.792;9.032;2023-01-01T17:35:52;8.90;;;4.97;;
177;SDS011;77;48.792;9.032;2023-01-01T17:38:17;7.67;;;5.00;;
177;SDS011;77;48.792;9.032;2023-01-01T17:40:43;11.90;;;4.97;;
177;SDS011;77;48.792;9.032;2023-01-01T17:43:08;12.07;;;5.10;;
177;SDS011;77;48.792;9.032;2023-01-01T17:45:34;14.07;;;5.23;;
177;SDS011;77;48.792;9.032;2023-01-01T17:48:01;11.17;;;4.83;;
177;SDS011;77;48.792;9.032;2023-01-01T17:50:26;9.90;;;5.33;;
177;SDS011;77;48.792;9.032;2023-01-01T17:52:51;10.63;;;5.77;;
177;SDS011;77;48.792;9.032;2023-01-01T17:55:16;10.30;;;5.17;;
177;SDS011;77;48.792;9.032;2023-01-01T17:57:42;10.07;;;5.00;;
177;SDS011;77;48.792;9.032;2023-01-01T18:00:07;10.47;;;5.07;;
177;SDS011;77;48.792;9.032;2023-01-01T18:02:33;9.70;;;4.50;;
177;SDS011;77;48.792;9.032;2023-01-01T18:04:59;13.07;;;5.47;;
177;SDS011;77;48.792;9.032;2023-01-01T18:07:24;11.20;;;4.90;;
177;SDS011;77;48.792;9.032;2023-01-01T18:09:49;14.23;;;4.83;;
177;SDS011;77;48.792;9.032;2023-01-01T18:12:15;10.20;;;4.80;;
177;SDS011;77;48.792;9.032;2023-01-01T18:14:40;8.20;;;4.60;;
177;SDS011;77;48.792;9.032;2023-01-01T18:17:05;10.50;;;5.07;;
177;SDS011;77;48.792;9.032;2023-01-01T18:19:30;8.33;;;4.53;;
177;SDS011;77;48.792;9.032;2023-01-01T18:21:57;7.53;;;4.17;;
177;SDS011;77;48.792;9.032;2023-01-01T18:24:22;7.67;;;4.20;;
177;SDS011;77;48.792;9.032;2023-01-01T18:26:47;10.40;;;4.00;;
177;SDS011;77;48.792;9.032;2023-01-01T18:29:12;7.27;;;4.20;;
177;SDS011;77;48.792;9.032;2023-01-01T18:31:37;8.93;;;4.20;;
177;SDS011;77;48.792;9.032;2023-01-01T18:34:02;8.67;;;4.03;;
177;SDS011;77;48.792;9.032;2023-01-01T18:36:28;7.93;;;4.50;;
177;SDS011;77;48.792;9.032;2023-01-01T18:38:56;7.10;;;4.40;;
177;SDS011;77;48.792;9.032;2023-01-01T18:44:04;7.60;;;4.00;;
177;SDS011;77;48.792;9.032;2023-01-01T18:46:32;9.37;;;4.03;;
177;SDS011;77;48.792;9.032;2023-01-01T18:48:58;6.33;;;3.80;;
177;SDS011;77;48.792;9.032;2023-01-01T18:51:24;8.80;;;4.13;;
177;SDS011;77;48.792;9.032;2023-01-01T18:53:49;8.93;;;4.20;;
177;SDS011;77;48.792;9.032;2023-01-01T18:56:17;9.50;;;4.00;;
177;SDS011;77;48.792;9.032;2023-01-01T18:58:42;8.33;;;4.27;;
177;SDS011;77;48.792;9.032;2023-01-01T19:01:11;8.10;;;3.50;;
177;SDS011;77;48.792;9.032;2023-01-01T19:03:37;8.77;;;4.20;;
177;SDS011;77;48.792;9.032;2023-01-01T19:06:02;9.17;;;3.80;;
177;SDS011;77;48.792;9.032;2023-01-01T19:08:33;8.43;;;4.07;;
177;SDS011;77;48.792;9.032;2023-01-01T19:11:00;7.30;;;3.77;;
177;SDS011;77;48.792;9.032;2023-01-01T19:13:28;9.00;;;3.90;;
177;SDS011;77;48.792;9.032;2023-01-01T19:15:56;6.70;;;3.50;;
177;SDS011;77;48.792;9.032;2023-01-01T19:18:22;6.00;;;3.50;;
177;SDS011;77;48.792;9.032;2023-01-01T19:20:48;6.30;;;3.60;;
177;SDS011;77;48.792;9.032;2023-01-01T19:23:16;8.30;;;3.30;;
177;SDS011;77;48.792;9.032;2023-01-01T19:25:41;7.53;;;3.53;;
177;SDS011;77;48.792;9.032;2023-01-01T19:30:51;6.80;;;3.40;;
177;SDS011;77;48.792;9.032;2023-01-01T19:33:17;5.00;;;3.10;;
177;SDS011;77;48.792;9.032;2023-01-01T19:35:42;5.23;;;3.20;;
177;SDS011;77;48.792;9.032;2023-01-01T19:38:07;4.97;;;3.37;;
177;SDS011;77;48.792;9.032;2023-01-01T19:40:32;7.80;;;3.40;;
177;SDS011;77;48.792;9.032;2023-01-01T19:42:57;10.13;;;3.20;;
177;SDS011;77;48.792;9.032;2023-01-01T19:45:22;5.90;;;2.97;;
177;SDS011;77;48.792;9.032;2023-01-01T19:47:49;6.47;;;3.23;;
177;SDS011;77;48.792;9.032;2023-01-01T19:50:14;5.80;;;3.10;;
177;SDS011;77;48.792;9.032;2023-01-01T19:52:39;5.60;;;3.00;;
177;SDS011;77;48.792;9.032;2023-01-01T19:55:05;4.77;;;2.90;;
177;SDS011;77;48.792;9.032;2023-01-01T19:57:30;5.57;;;2.93;;
177;SDS011;77;48.792;9.032;2023-01-01T19:59:55;5.47;;;2.83;;
177;SDS011;77;48.792;9.032;2023-01-01T20:02:20;6.20;;;3.07;;
177;SDS011;77;48.792;9.032;2023-01-01T20:04:47;5.43;;;2.90;;
177;SDS011;77;48.792;9.032;2023-01-01T20:07:12;6.70;;;2.90;;
177;SDS011;77;48.792;9.032;2023-01-01T20:09:37;6.47;;;2.97;;
177;SDS011;77;48.792;9.032;2023-01-01T20:12:03;9.90;;;3.30;;
177;SDS011;77;48.792;9.032;2023-01-01T20:14:28;7.70;;;3.47;;
177;SDS011;77;48.792;9.032;2023-01-01T20:16:53;4.93;;;2.90;;
177;SDS011;77;48.792;9.032;2023-01-01T20:19:18;5.77;;;2.90;;
177;SDS011;77;48.792;9.032;2023-01-01T20:21:45;4.53;;;2.63;;
177;SDS011;77;48.792;9.032;2023-01-01T20:24:10;4.70;;;2.83;;
177;SDS011;77;48.792;9.032;2023-01-01T20:26:35;5.37;;;2.90;;
177;SDS011;77;48.792;9.032;2023-01-01T20:29:00;4.90;;;2.87;;
177;SDS011;77;48.792;9.032;2023-01-01T20:31:25;8.13;;;2.90;;
177;SDS011;77;48.792;9.032;2023-01-01T20:33:50;4.80;;;3.17;;
177;SDS011;77;48.792;9.032;2023-01-01T20:36:16;8.00;;;3.40;;
177;SDS011;77;48.792;9.032;2023-01-01T20:38:42;7.67;;;3.23;;
177;SDS011;77;48.792;9.032;2023-01-01T20:41:07;4.90;;;3.10;;
177;SDS011;77;48.792;9.032;2023-01-01T20:43:32;4.77;;;3.10;;
177;SDS011;77;48.792;9.032;2023-01-01T20:45:58;6.53;;;3.27;;
177;SDS011;77;48.792;9.032;2023-01-01T20:48:23;4.80;;;2.80;;
177;SDS011;77;48.792;9.032;2023-01-01T20:50:48;4.57;;;2.93;;
177;SDS011;77;48.792;9.032;2023-01-01T20:53:13;4.20;;;2.87;;
177;SDS011;77;48.792;9.032;2023-01-01T20:55:39;3.63;;;2.70;;
177;SDS011;77;48.792;9.032;2023-01-01T20:58:05;8.53;;;2.70;;
177;SDS011;77;48.792;9.032;2023-01-01T21:00:30;6.27;;;3.10;;
177;SDS011;77;48.792;9.032;2023-01-01T21:02:55;4.83;;;2.90;;
177;SDS011;77;48.792;9.032;2023-01-01T21:05:20;5.40;;;3.00;;
177;SDS011;77;48.792;9.032;2023-01-01T21:07:45;5.10;;;3.07;;
177;SDS011;77;48.792;9.032;2023-01-01T21:10:10;7.70;;;3.20;;
177;SDS011;77;48.792;9.032;2023-01-01T21:12:37;4.10;;;2.60;;
177;SDS011;77;48.792;9.032;2023-01-01T21:15:05;6.20;;;3.07;;
177;SDS011;77;48.792;9.032;2023-01-01T21:17:31;8.87;;;3.30;;
177;SDS011;77;48.792;9.032;2023-01-01T21:19:56;4.43;;;3.00;;
177;SDS011;77;48.792;9.032;2023-01-01T21:22:22;7.23;;;3.50;;
177;SDS011;77;48.792;9.032;2023-01-01T21:24:47;5.33;;;3.10;;
177;SDS011;77;48.792;9.032;2023-01-01T21:27:13;5.40;;;3.23;;
177;SDS011;77;48.792;9.032;2023-01-01T21:29:43;6.00;;;3.47;;
177;SDS011;77;48.792;9.032;2023-01-01T21:32:11;6.87;;;3.50;;
177;SDS011;77;48.792;9.032;2023-01-01T21:34:38;5.80;;;3.10;;
177;SDS011;77;48.792;9.032;2023-01-01T21:37:05;8.70;;;3.20;;
177;SDS011;77;48.792;9.032;2023-01-01T21:39:34;6.10;;;3.40;;
177;SDS011;77;48.792;9.032;2023-01-01T21:42:00;6.93;;;3.10;;
177;SDS011;77;48.792;9.032;2023-01-01T21:44:30;5.90;;;2.93;;
177;SDS011;77;48.792;9.032;2023-01-01T21:46:56;6.37;;;3.53;;
177;SDS011;77;48.792;9.032;2023-01-01T21:49:22;6.83;;;3.80;;
177;SDS011;77;48.792;9.032;2023-01-01T21:51:48;9.50;;;3.47;;
177;SDS011;77;48.792;9.032;2023-01-01T21:54:16;7.50;;;3.40;;
177;SDS011;77;48.792;9.032;2023-01-01T21:56:42;9.20;;;3.70;;
177;SDS011;77;48.792;9.032;2023-01-01T21:59:11;6.80;;;3.40;;
177;SDS011;77;48.792;9.032;2023-01-01T22:01:38;7.50;;;3.60;;
177;SDS011;77;48.792;9.032;2023-01-01T22:04:13;5.90;;;3.13;;
177;SDS011;77;48.792;9.032;2023-01-01T22:06:39;5.70;;;3.77;;
177;SDS011;77;48.792;9.032;2023-01-01T22:09:10;6.13;;;3.43;;
177;SDS011;77;48.792;9.032;2023-01-01T22:11:37;7.20;;;3.50;;
177;SDS011;77;48.792;9.032;2023-01-01T22:14:05;6.80;;;3.20;;
177;SDS011;77;48.792;9.032;2023-01-01T22:16:33;4.73;;;3.13;;
177;SDS011;77;48.792;9.032;2023-01-01T22:18:58;8.23;;;3.50;;
177;SDS011;77;48.792;9.032;2023-01-01T22:21:25;5.40;;;3.10;;
177;SDS011;77;48.792;9.032;2023-01-01T22:23:50;8.70;;;3.37;;
177;SDS011;77;48.792;9.032;2023-01-01T22:26:17;4.67;;;3.20;;
177;SDS011;77;48.792;9.032;2023-01-01T22:28:43;7.43;;;3.63;;
177;SDS011;77;48.792;9.032;2023-01-01T22:31:09;7.90;;;3.43;;
177;SDS011;77;48.792;9.032;2023-01-01T22:33:36;8.50;;;3.50;;
177;SDS011;77;48.792;9.032;2023-01-01T22:36:04;6.30;;;3.30;;
177;SDS011;77;48.792;9.032;2023-01-01T22:38:36;8.10;;;3.77;;
177;SDS011;77;48.792;9.032;2023-01-01T22:41:01;5.50;;;3.40;;
177;SDS011;77;48.792;9.032;2023-01-01T22:43:28;6.97;;;3.43;;
177;SDS011;77;48.792;9.032;2023-01-01T22:45:54;5.43;;;3.30;;
177;SDS011;77;48.792;9.032;2023-01-01T22:48:20;6.47;;;3.07;;
177;SDS011;77;48.792;9.032;2023-01-01T22:50:47;7.00;;;3.73;;
177;SDS011;77;48.792;9.032;2023-01-01T22:53:12;6.20;;;3.60;;
177;SDS011;77;48.792;9.032;2023-01-01T22:55:38;5.70;;;3.50;;
177;SDS011;77;48.792;9.032;2023-01-01T22:58:03;7.83;;;3.60;;
177;SDS011;77;48.792;9.032;2023-01-01T23:00:29;5.90;;;3.30;;
177;SDS011;77;48.792;9.032;2023-01-01T23:02:54;5.20;;;3.33;;
